createdAt,value
2023-02-05T00:00:18.140Z,1019.91
2023-02-05T00:01:18.138Z,1019.88
2023-02-05T00:02:18.127Z,1019.85
2023-02-05T00:03:18.146Z,1019.88
2023-02-05T00:04:18.177Z,1019.82
2023-02-05T00:05:18.108Z,1019.84
2023-02-05T00:06:18.070Z,1019.86
2023-02-05T00:07:18.060Z,1019.81
2023-02-05T00:08:18.049Z,1019.87
2023-02-05T00:09:18.045Z,1019.78
2023-02-05T00:10:18.028Z,1019.79
2023-02-05T00:11:18.052Z,1019.77
2023-02-05T00:12:18.006Z,1019.82
2023-02-05T00:13:18.006Z,1019.83
2023-02-05T00:14:17.978Z,1019.83
2023-02-05T00:15:17.978Z,1019.86
2023-02-05T00:16:18.072Z,1019.85
2023-02-05T00:17:17.966Z,1019.85
2023-02-05T00:18:17.936Z,1019.86
2023-02-05T00:19:17.925Z,1019.84
2023-02-05T00:20:17.916Z,1019.86
2023-02-05T00:21:17.906Z,1019.85
2023-02-05T00:22:17.926Z,1019.87
2023-02-05T00:23:17.885Z,1019.91
2023-02-05T00:24:17.864Z,1019.93
2023-02-05T00:25:17.857Z,1019.91
2023-02-05T00:26:17.850Z,1019.92
2023-02-05T00:27:17.834Z,1019.89
2023-02-05T00:28:17.919Z,1019.89
2023-02-05T00:29:17.814Z,1019.81
2023-02-05T00:30:17.798Z,1019.84
2023-02-05T00:31:17.936Z,1019.88
2023-02-05T00:32:17.778Z,1019.82
2023-02-05T00:33:17.775Z,1019.82
2023-02-05T00:34:17.786Z,1019.81
2023-02-05T00:35:17.743Z,1019.87
2023-02-05T00:36:17.735Z,1019.81
2023-02-05T00:37:17.735Z,1019.82
2023-02-05T00:38:17.726Z,1019.81
2023-02-05T00:39:17.703Z,1019.80
2023-02-05T00:40:17.724Z,1019.77
2023-02-05T00:41:17.683Z,1019.73
2023-02-05T00:42:17.664Z,1019.64
2023-02-05T00:43:17.663Z,1019.66
2023-02-05T00:44:17.664Z,1019.63
2023-02-05T00:45:17.633Z,1019.65
2023-02-05T00:46:17.705Z,1019.66
2023-02-05T00:47:17.617Z,1019.66
2023-02-05T00:48:17.616Z,1019.62
2023-02-05T00:49:17.596Z,1019.69
2023-02-05T00:50:17.593Z,1019.67
2023-02-05T00:51:17.583Z,1019.58
2023-02-05T00:52:17.607Z,1019.56
2023-02-05T00:53:17.557Z,1019.50
2023-02-05T00:54:17.534Z,1019.54
2023-02-05T00:55:17.522Z,1019.49
2023-02-05T00:56:17.513Z,1019.51
2023-02-05T00:57:17.514Z,1019.50
2023-02-05T00:58:17.495Z,1019.46
2023-02-05T00:59:17.473Z,1019.41
2023-02-05T01:00:17.494Z,1019.37
2023-02-05T01:01:17.522Z,1019.39
2023-02-05T01:02:17.467Z,1019.42
2023-02-05T01:03:17.455Z,1019.36
2023-02-05T01:04:17.432Z,1019.33
2023-02-05T01:05:17.417Z,1019.32
2023-02-05T01:06:17.394Z,1019.27
2023-02-05T01:07:17.391Z,1019.27
2023-02-05T01:08:17.486Z,1019.25
2023-02-05T01:09:17.421Z,1019.24
2023-02-05T01:10:17.350Z,1019.24
2023-02-05T01:11:17.343Z,1019.14
2023-02-05T01:12:17.368Z,1019.19
2023-02-05T01:13:18.161Z,1019.14
2023-02-05T01:14:17.342Z,1019.18
2023-02-05T01:15:17.295Z,1019.13
2023-02-05T01:16:17.391Z,1019.03
2023-02-05T01:17:17.281Z,1018.99
2023-02-05T01:18:17.265Z,1018.97
2023-02-05T01:19:17.245Z,1019.01
2023-02-05T01:20:17.260Z,1019.00
2023-02-05T01:21:17.225Z,1019.06
2023-02-05T01:22:17.215Z,1019.00
2023-02-05T01:23:17.239Z,1018.98
2023-02-05T01:24:17.193Z,1018.99
2023-02-05T01:25:17.184Z,1018.98
2023-02-05T01:26:17.185Z,1018.99
2023-02-05T01:27:17.193Z,1018.97
2023-02-05T01:28:17.206Z,1018.97
2023-02-05T01:29:17.143Z,1018.97
2023-02-05T01:30:17.148Z,1019.01
2023-02-05T01:31:17.251Z,1019.09
2023-02-05T01:32:17.105Z,1019.09
2023-02-05T01:33:17.118Z,1019.07
2023-02-05T01:34:17.076Z,1019.05
2023-02-05T01:35:17.079Z,1018.99
2023-02-05T01:36:17.090Z,1019.00
2023-02-05T01:37:17.066Z,1018.99
2023-02-05T01:38:17.035Z,1018.96
2023-02-05T01:39:17.026Z,1018.95
2023-02-05T01:40:17.011Z,1018.85
2023-02-05T01:41:17.002Z,1018.89
2023-02-05T01:42:17.011Z,1018.84
2023-02-05T01:43:16.998Z,1018.93
2023-02-05T01:44:16.961Z,1018.86
2023-02-05T01:45:16.958Z,1018.88
2023-02-05T01:46:17.090Z,1018.91
2023-02-05T01:47:16.934Z,1018.93
2023-02-05T01:48:16.939Z,1018.95
2023-02-05T01:49:16.908Z,1018.96
2023-02-05T01:50:16.894Z,1018.90
2023-02-05T01:51:16.878Z,1018.92
2023-02-05T01:52:16.868Z,1018.84
2023-02-05T01:53:16.868Z,1018.80
2023-02-05T01:54:16.867Z,1018.81
2023-02-05T01:55:16.837Z,1018.82
2023-02-05T01:56:16.828Z,1018.84
2023-02-05T01:57:16.821Z,1018.73
2023-02-05T01:58:16.797Z,1018.79
2023-02-05T01:59:16.786Z,1018.73
2023-02-05T02:00:16.825Z,1018.76
2023-02-05T02:01:16.805Z,1018.78
2023-02-05T02:02:16.758Z,1018.77
2023-02-05T02:03:16.747Z,1018.73
2023-02-05T02:04:16.740Z,1018.73
2023-02-05T02:05:16.791Z,1018.75
2023-02-05T02:06:16.732Z,1018.74
2023-02-05T02:07:16.705Z,1018.74
2023-02-05T02:08:16.693Z,1018.74
2023-02-05T02:09:16.682Z,1018.72
2023-02-05T02:10:16.655Z,1018.66
2023-02-05T02:11:16.657Z,1018.61
2023-02-05T02:12:16.656Z,1018.61
2023-02-05T02:13:16.636Z,1018.56
2023-02-05T02:14:16.621Z,1018.59
2023-02-05T02:15:16.609Z,1018.56
2023-02-05T02:16:16.620Z,1018.55
2023-02-05T02:17:16.612Z,1018.52
2023-02-05T02:18:16.566Z,1018.54
2023-02-05T02:19:16.560Z,1018.52
2023-02-05T02:20:16.545Z,1018.46
2023-02-05T02:21:16.548Z,1018.42
2023-02-05T02:22:16.524Z,1018.48
2023-02-05T02:23:16.565Z,1018.45
2023-02-05T02:24:16.511Z,1018.50
2023-02-05T02:25:16.495Z,1018.42
2023-02-05T02:26:16.475Z,1018.31
2023-02-05T02:27:16.478Z,1018.29
2023-02-05T02:28:16.489Z,1018.25
2023-02-05T02:29:16.489Z,1018.29
2023-02-05T02:30:16.433Z,1018.24
2023-02-05T02:31:16.474Z,1018.29
2023-02-05T02:32:16.438Z,1018.26
2023-02-05T02:33:16.404Z,1018.30
2023-02-05T02:34:16.387Z,1018.29
2023-02-05T02:35:16.404Z,1018.29
2023-02-05T02:36:16.371Z,1018.33
2023-02-05T02:37:16.360Z,1018.28
2023-02-05T02:38:16.343Z,1018.21
2023-02-05T02:39:16.334Z,1018.21
2023-02-05T02:40:16.323Z,1018.19
2023-02-05T02:41:16.352Z,1018.24
2023-02-05T02:42:16.293Z,1018.24
2023-02-05T02:43:16.293Z,1018.22
2023-02-05T02:44:16.274Z,1018.25
2023-02-05T02:45:16.320Z,1018.19
2023-02-05T02:46:16.300Z,1018.13
2023-02-05T02:47:16.245Z,1018.02
2023-02-05T02:48:16.226Z,1018.07
2023-02-05T02:49:16.234Z,1018.05
2023-02-05T02:50:16.206Z,1018.12
2023-02-05T02:51:16.197Z,1018.12
2023-02-05T02:52:16.230Z,1018.12
2023-02-05T02:53:16.186Z,1018.12
2023-02-05T02:54:16.165Z,1018.04
2023-02-05T02:55:16.159Z,1018.07
2023-02-05T02:56:16.151Z,1018.02
2023-02-05T02:57:16.170Z,1017.99
2023-02-05T02:58:16.124Z,1017.98
2023-02-05T02:59:16.108Z,1017.94
2023-02-05T03:00:16.109Z,1018.00
2023-02-05T03:01:16.091Z,1018.00
2023-02-05T03:02:16.081Z,1018.03
2023-02-05T03:03:16.118Z,1018.00
2023-02-05T03:04:16.049Z,1018.06
2023-02-05T03:05:16.054Z,1018.04
2023-02-05T03:06:16.030Z,1018.06
2023-02-05T03:07:16.022Z,1018.05
2023-02-05T03:08:16.008Z,1018.05
2023-02-05T03:09:16.009Z,1018.01
2023-02-05T03:10:15.990Z,1017.95
2023-02-05T03:11:15.980Z,1017.95
2023-02-05T03:12:15.961Z,1017.98
2023-02-05T03:13:15.959Z,1017.93
2023-02-05T03:14:15.960Z,1017.91
2023-02-05T03:15:15.929Z,1017.96
2023-02-05T03:16:15.978Z,1017.94
2023-02-05T03:17:15.910Z,1017.97
2023-02-05T03:18:15.889Z,1017.99
2023-02-05T03:19:15.887Z,1018.01
2023-02-05T03:20:15.889Z,1017.93
2023-02-05T03:21:15.935Z,1017.94
2023-02-05T03:22:15.848Z,1017.93
2023-02-05T03:23:15.840Z,1017.91
2023-02-05T03:24:15.848Z,1017.97
2023-02-05T03:25:15.818Z,1017.93
2023-02-05T03:26:15.889Z,1017.85
2023-02-05T03:27:15.789Z,1017.86
2023-02-05T03:28:15.814Z,1017.86
2023-02-05T03:29:15.768Z,1017.89
2023-02-05T03:30:15.769Z,1017.90
2023-02-05T03:31:15.798Z,1017.92
2023-02-05T03:32:15.746Z,1017.94
2023-02-05T03:33:15.751Z,1017.95
2023-02-05T03:34:15.711Z,1017.95
2023-02-05T03:35:15.706Z,1017.92
2023-02-05T03:36:15.686Z,1017.94
2023-02-05T03:37:15.696Z,1017.91
2023-02-05T03:38:15.673Z,1017.93
2023-02-05T03:39:15.661Z,1017.87
2023-02-05T03:40:15.637Z,1017.87
2023-02-05T03:41:15.627Z,1017.80
2023-02-05T03:42:15.618Z,1017.89
2023-02-05T03:43:15.627Z,1017.80
2023-02-05T03:44:15.602Z,1017.87
2023-02-05T03:45:15.585Z,1017.91
2023-02-05T03:46:15.566Z,1017.93
2023-02-05T03:47:15.566Z,1017.95
2023-02-05T03:48:15.581Z,1017.93
2023-02-05T03:49:15.542Z,1017.99
2023-02-05T03:50:15.529Z,1018.04
2023-02-05T03:51:15.516Z,1018.01
2023-02-05T03:52:15.500Z,1018.08
2023-02-05T03:53:15.504Z,1018.06
2023-02-05T03:54:15.508Z,1018.05
2023-02-05T03:55:15.472Z,1018.05
2023-02-05T03:56:15.473Z,1018.00
2023-02-05T03:57:15.442Z,1018.00
2023-02-05T03:58:15.433Z,1018.00
2023-02-05T03:59:15.419Z,1017.99
2023-02-05T04:00:15.425Z,1018.00
2023-02-05T04:01:15.502Z,1018.03
2023-02-05T04:02:15.423Z,1018.06
2023-02-05T04:03:15.378Z,1017.94
2023-02-05T04:04:15.370Z,1017.96
2023-02-05T04:05:15.373Z,1017.93
2023-02-05T04:06:15.357Z,1017.94
2023-02-05T04:07:22.374Z,1017.96
2023-02-05T04:08:15.317Z,1017.96
2023-02-05T04:09:15.304Z,1017.94
2023-02-05T04:10:15.293Z,1017.95
2023-02-05T04:11:15.303Z,1017.89
2023-02-05T04:12:15.273Z,1017.93
2023-02-05T04:13:15.265Z,1017.94
2023-02-05T04:14:15.245Z,1017.92
2023-02-05T04:15:15.255Z,1017.84
2023-02-05T04:16:15.312Z,1017.90
2023-02-05T04:17:15.234Z,1017.91
2023-02-05T04:18:15.201Z,1017.96
2023-02-05T04:19:15.184Z,1017.98
2023-02-05T04:20:15.177Z,1018.00
2023-02-05T04:21:15.161Z,1017.97
2023-02-05T04:22:15.171Z,1017.92
2023-02-05T04:23:15.224Z,1017.88
2023-02-05T04:24:15.260Z,1017.89
2023-02-05T04:25:15.109Z,1017.92
2023-02-05T04:26:15.100Z,1017.93
2023-02-05T04:27:15.091Z,1017.88
2023-02-05T04:28:15.191Z,1017.88
2023-02-05T04:29:15.072Z,1017.87
2023-02-05T04:30:15.064Z,1017.83
2023-02-05T04:31:15.186Z,1017.82
2023-02-05T04:32:15.043Z,1017.77
2023-02-05T04:33:15.182Z,1017.79
2023-02-05T04:34:15.043Z,1017.74
2023-02-05T04:35:15.006Z,1017.72
2023-02-05T04:36:14.996Z,1017.66
2023-02-05T04:37:15.000Z,1017.62
2023-02-05T04:38:14.982Z,1017.64
2023-02-05T04:39:14.975Z,1017.56
2023-02-05T04:40:14.980Z,1017.58
2023-02-05T04:41:14.938Z,1017.56
2023-02-05T04:42:14.935Z,1017.52
2023-02-05T04:43:15.107Z,1017.48
2023-02-05T04:44:14.905Z,1017.46
2023-02-05T04:45:14.900Z,1017.43
2023-02-05T04:46:14.936Z,1017.40
2023-02-05T04:47:14.885Z,1017.46
2023-02-05T04:48:14.864Z,1017.53
2023-02-05T04:49:14.847Z,1017.53
2023-02-05T04:50:14.877Z,1017.52
2023-02-05T04:51:14.862Z,1017.50
2023-02-05T04:52:14.820Z,1017.44
2023-02-05T04:53:14.804Z,1017.42
2023-02-05T04:54:14.796Z,1017.40
2023-02-05T04:55:14.798Z,1017.44
2023-02-05T04:56:14.769Z,1017.45
2023-02-05T04:57:14.790Z,1017.51
2023-02-05T04:58:14.755Z,1017.45
2023-02-05T04:59:14.736Z,1017.45
2023-02-05T05:00:14.726Z,1017.53
2023-02-05T05:01:14.729Z,1017.55
2023-02-05T05:02:14.736Z,1017.62
2023-02-05T05:03:14.704Z,1017.63
2023-02-05T05:04:14.674Z,1017.63
2023-02-05T05:05:14.664Z,1017.57
2023-02-05T05:06:14.654Z,1017.63
2023-02-05T05:07:14.648Z,1017.61
2023-02-05T05:08:14.634Z,1017.66
2023-02-05T05:09:14.643Z,1017.73
2023-02-05T05:10:14.621Z,1017.75
2023-02-05T05:11:14.605Z,1017.69
2023-02-05T05:12:14.594Z,1017.67
2023-02-05T05:13:14.575Z,1017.67
2023-02-05T05:14:14.593Z,1017.72
2023-02-05T05:15:14.554Z,1017.72
2023-02-05T05:16:14.618Z,1017.80
2023-02-05T05:17:14.524Z,1017.80
2023-02-05T05:18:14.524Z,1017.77
2023-02-05T05:19:14.503Z,1017.84
2023-02-05T05:20:14.550Z,1017.89
2023-02-05T05:21:14.507Z,1017.96
2023-02-05T05:22:14.477Z,1017.88
2023-02-05T05:23:14.454Z,1017.87
2023-02-05T05:24:14.453Z,1017.89
2023-02-05T05:25:14.442Z,1017.91
2023-02-05T05:26:14.449Z,1017.88
2023-02-05T05:27:14.416Z,1017.87
2023-02-05T05:28:14.434Z,1017.83
2023-02-05T05:29:14.397Z,1017.78
2023-02-05T05:30:14.386Z,1017.77
2023-02-05T05:31:14.414Z,1017.79
2023-02-05T05:32:14.437Z,1017.83
2023-02-05T05:33:14.344Z,1017.80
2023-02-05T05:34:14.335Z,1017.78
2023-02-05T05:35:14.324Z,1017.80
2023-02-05T05:36:14.322Z,1017.75
2023-02-05T05:37:14.304Z,1017.75
2023-02-05T05:38:14.313Z,1017.80
2023-02-05T05:39:14.283Z,1017.78
2023-02-05T05:40:14.274Z,1017.79
2023-02-05T05:41:14.253Z,1017.82
2023-02-05T05:42:14.254Z,1017.76
2023-02-05T05:43:14.237Z,1017.75
2023-02-05T05:44:14.253Z,1017.72
2023-02-05T05:45:14.215Z,1017.72
2023-02-05T05:46:14.219Z,1017.74
2023-02-05T05:47:14.186Z,1017.78
2023-02-05T05:48:14.182Z,1017.83
2023-02-05T05:49:14.167Z,1017.85
2023-02-05T05:50:14.172Z,1017.91
2023-02-05T05:51:14.142Z,1017.89
2023-02-05T05:52:14.133Z,1017.91
2023-02-05T05:53:14.124Z,1017.95
2023-02-05T05:54:14.112Z,1017.91
2023-02-05T05:55:14.120Z,1017.93
2023-02-05T05:56:14.110Z,1017.91
2023-02-05T05:57:14.092Z,1017.93
2023-02-05T05:58:14.061Z,1017.94
2023-02-05T05:59:14.049Z,1017.96
2023-02-05T06:00:14.089Z,1017.95
2023-02-05T06:01:14.051Z,1017.93
2023-02-05T06:02:14.032Z,1017.96
2023-02-05T06:03:14.019Z,1017.94
2023-02-05T06:04:14.024Z,1017.97
2023-02-05T06:05:13.990Z,1017.93
2023-02-05T06:06:14.007Z,1017.88
2023-02-05T06:07:13.978Z,1017.86
2023-02-05T06:08:13.979Z,1017.87
2023-02-05T06:09:13.935Z,1017.87
2023-02-05T06:10:13.925Z,1017.79
2023-02-05T06:11:13.920Z,1017.86
2023-02-05T06:12:13.926Z,1017.83
2023-02-05T06:13:13.901Z,1017.84
2023-02-05T06:14:13.885Z,1017.81
2023-02-05T06:15:13.864Z,1017.78
2023-02-05T06:16:13.897Z,1017.76
2023-02-05T06:17:13.850Z,1017.75
2023-02-05T06:18:13.869Z,1017.70
2023-02-05T06:19:13.814Z,1017.79
2023-02-05T06:20:13.823Z,1017.81
2023-02-05T06:21:13.794Z,1017.74
2023-02-05T06:22:13.785Z,1017.79
2023-02-05T06:23:13.813Z,1017.80
2023-02-05T06:24:13.763Z,1017.75
2023-02-05T06:25:13.744Z,1017.77
2023-02-05T06:26:13.743Z,1017.80
2023-02-05T06:27:13.732Z,1017.75
2023-02-05T06:28:13.742Z,1017.75
2023-02-05T06:29:13.728Z,1017.74
2023-02-05T06:30:13.693Z,1017.75
2023-02-05T06:31:13.789Z,1017.76
2023-02-05T06:32:13.674Z,1017.76
2023-02-05T06:33:13.665Z,1017.67
2023-02-05T06:34:13.657Z,1017.67
2023-02-05T06:35:13.675Z,1017.67
2023-02-05T06:36:13.625Z,1017.63
2023-02-05T06:37:13.622Z,1017.62
2023-02-05T06:38:13.605Z,1017.58
2023-02-05T06:39:13.596Z,1017.56
2023-02-05T06:40:13.591Z,1017.60
2023-02-05T06:41:13.583Z,1017.54
2023-02-05T06:42:13.563Z,1017.50
2023-02-05T06:43:13.545Z,1017.51
2023-02-05T06:44:13.536Z,1017.44
2023-02-05T06:45:13.528Z,1017.47
2023-02-05T06:46:13.553Z,1017.51
2023-02-05T06:47:13.535Z,1017.54
2023-02-05T06:48:13.499Z,1017.62
2023-02-05T06:49:13.474Z,1017.62
2023-02-05T06:50:13.489Z,1017.63
2023-02-05T06:51:13.472Z,1017.71
2023-02-05T06:52:13.465Z,1017.76
2023-02-05T06:53:13.433Z,1017.82
2023-02-05T06:54:13.423Z,1017.80
2023-02-05T06:55:13.414Z,1017.82
2023-02-05T06:56:13.401Z,1017.76
2023-02-05T06:57:13.394Z,1017.64
2023-02-05T06:58:13.393Z,1017.69
2023-02-05T06:59:13.363Z,1017.63
2023-02-05T07:00:13.354Z,1017.55
2023-02-05T07:01:13.342Z,1017.47
2023-02-05T07:02:13.352Z,1017.43
2023-02-05T07:03:13.334Z,1017.50
2023-02-05T07:04:13.318Z,1017.46
2023-02-05T07:05:13.305Z,1017.47
2023-02-05T07:06:13.299Z,1017.46
2023-02-05T07:07:13.279Z,1017.47
2023-02-05T07:08:13.286Z,1017.48
2023-02-05T07:09:13.277Z,1017.46
2023-02-05T07:10:13.250Z,1017.42
2023-02-05T07:11:13.267Z,1017.44
2023-02-05T07:12:13.226Z,1017.40
2023-02-05T07:13:13.215Z,1017.33
2023-02-05T07:14:13.217Z,1017.32
2023-02-05T07:15:13.197Z,1017.26
2023-02-05T07:16:13.282Z,1017.18
2023-02-05T07:17:13.169Z,1017.28
2023-02-05T07:18:13.157Z,1017.26
2023-02-05T07:19:13.146Z,1017.38
2023-02-05T07:20:13.151Z,1017.46
2023-02-05T07:21:13.120Z,1017.56
2023-02-05T07:22:13.107Z,1017.62
2023-02-05T07:23:13.100Z,1017.59
2023-02-05T07:24:13.087Z,1017.49
2023-02-05T07:25:13.117Z,1017.49
2023-02-05T07:26:13.067Z,1017.40
2023-02-05T07:27:13.056Z,1017.31
2023-02-05T07:28:13.121Z,1017.37
2023-02-05T07:29:13.027Z,1017.32
2023-02-05T07:30:13.025Z,1017.33
2023-02-05T07:31:13.066Z,1017.28
2023-02-05T07:32:12.997Z,1017.24
2023-02-05T07:33:12.978Z,1017.22
2023-02-05T07:34:12.977Z,1017.21
2023-02-05T07:35:12.971Z,1017.22
2023-02-05T07:36:12.959Z,1017.24
2023-02-05T07:37:12.955Z,1017.24
2023-02-05T07:38:12.925Z,1017.16
2023-02-05T07:39:12.919Z,1017.15
2023-02-05T07:40:12.911Z,1017.22
2023-02-05T07:41:12.885Z,1017.20
2023-02-05T07:42:12.874Z,1017.19
2023-02-05T07:43:12.882Z,1017.21
2023-02-05T07:44:12.869Z,1017.25
2023-02-05T07:45:12.840Z,1017.23
2023-02-05T07:46:12.879Z,1017.24
2023-02-05T07:47:12.827Z,1017.21
2023-02-05T07:48:12.830Z,1017.25
2023-02-05T07:49:12.789Z,1017.26
2023-02-05T07:50:12.787Z,1017.22
2023-02-05T07:51:12.770Z,1017.24
2023-02-05T07:52:12.761Z,1017.22
2023-02-05T07:53:12.748Z,1017.24
2023-02-05T07:54:12.758Z,1017.17
2023-02-05T07:55:12.718Z,1017.17
2023-02-05T07:56:12.718Z,1017.14
2023-02-05T07:57:12.711Z,1017.12
2023-02-05T07:58:12.688Z,1017.12
2023-02-05T07:59:12.679Z,1017.09
2023-02-05T08:00:12.692Z,1017.12
2023-02-05T08:01:12.694Z,1017.16
2023-02-05T08:02:12.648Z,1017.08
2023-02-05T08:03:12.631Z,1017.06
2023-02-05T08:04:12.675Z,1017.08
2023-02-05T08:05:12.606Z,1017.05
2023-02-05T08:06:12.626Z,1017.03
2023-02-05T08:07:12.603Z,1016.93
2023-02-05T08:08:12.576Z,1017.06
2023-02-05T08:09:12.571Z,1016.99
2023-02-05T08:10:12.556Z,1016.97
2023-02-05T08:11:12.565Z,1016.98
2023-02-05T08:12:12.556Z,1017.03
2023-02-05T08:13:12.516Z,1016.96
2023-02-05T08:14:12.517Z,1016.91
2023-02-05T08:15:12.496Z,1016.98
2023-02-05T08:16:12.546Z,1016.94
2023-02-05T08:17:12.511Z,1016.92
2023-02-05T08:18:12.457Z,1016.96
2023-02-05T08:19:12.824Z,1016.90
2023-02-05T08:20:12.469Z,1016.90
2023-02-05T08:21:12.441Z,1016.93
2023-02-05T08:22:12.416Z,1016.89
2023-02-05T08:23:12.431Z,1016.84
2023-02-05T08:24:12.397Z,1016.90
2023-02-05T08:25:12.391Z,1016.89
2023-02-05T08:26:12.393Z,1016.89
2023-02-05T08:27:12.355Z,1016.90
2023-02-05T08:28:12.394Z,1016.85
2023-02-05T08:29:12.336Z,1016.86
2023-02-05T08:30:12.325Z,1016.89
2023-02-05T08:31:12.338Z,1016.85
2023-02-05T08:32:12.305Z,1016.91
2023-02-05T08:33:12.296Z,1016.98
2023-02-05T08:34:12.295Z,1017.00
2023-02-05T08:35:12.275Z,1017.03
2023-02-05T08:36:12.254Z,1017.07
2023-02-05T08:37:12.246Z,1017.07
2023-02-05T08:38:12.234Z,1017.07
2023-02-05T08:39:12.236Z,1017.05
2023-02-05T08:40:12.225Z,1017.04
2023-02-05T08:41:12.229Z,1017.07
2023-02-05T08:42:12.188Z,1017.04
2023-02-05T08:43:12.194Z,1017.01
2023-02-05T08:44:12.179Z,1016.97
2023-02-05T08:45:12.156Z,1017.02
2023-02-05T08:46:12.302Z,1016.96
2023-02-05T08:47:12.136Z,1016.95
2023-02-05T08:48:12.123Z,1016.92
2023-02-05T08:49:12.114Z,1016.89
2023-02-05T08:50:12.095Z,1016.86
2023-02-05T08:51:12.084Z,1016.85
2023-02-05T08:52:12.094Z,1016.83
2023-02-05T08:53:12.066Z,1016.81
2023-02-05T08:54:12.054Z,1016.79
2023-02-05T08:55:12.047Z,1016.74
2023-02-05T08:56:12.024Z,1016.78
2023-02-05T08:57:12.033Z,1016.73
2023-02-05T08:58:12.014Z,1016.73
2023-02-05T08:59:12.003Z,1016.81
2023-02-05T09:00:12.001Z,1016.77
2023-02-05T09:01:12.040Z,1016.77
2023-02-05T09:02:11.956Z,1016.72
2023-02-05T09:03:11.987Z,1016.73
2023-02-05T09:04:11.971Z,1016.76
2023-02-05T09:05:11.935Z,1016.72
2023-02-05T09:06:11.913Z,1016.71
2023-02-05T09:07:11.902Z,1016.67
2023-02-05T09:08:11.891Z,1016.68
2023-02-05T09:09:11.903Z,1016.65
2023-02-05T09:10:11.875Z,1016.69
2023-02-05T09:11:11.861Z,1016.70
2023-02-05T09:12:11.843Z,1016.70
2023-02-05T09:13:11.832Z,1016.61
2023-02-05T09:14:11.822Z,1016.59
2023-02-05T09:15:11.833Z,1016.66
2023-02-05T09:16:11.791Z,1016.70
2023-02-05T09:17:11.792Z,1016.65
2023-02-05T09:18:11.770Z,1016.66
2023-02-05T09:19:11.763Z,1016.66
2023-02-05T09:20:11.752Z,1016.63
2023-02-05T09:21:11.773Z,1016.68
2023-02-05T09:22:11.733Z,1016.66
2023-02-05T09:23:11.724Z,1016.69
2023-02-05T09:24:11.714Z,1016.71
2023-02-05T09:25:11.703Z,1016.64
2023-02-05T09:26:11.684Z,1016.71
2023-02-05T09:27:11.704Z,1016.72
2023-02-05T09:28:11.735Z,1016.75
2023-02-05T09:29:12.125Z,1016.70
2023-02-05T09:30:11.648Z,1016.70
2023-02-05T09:31:11.722Z,1016.76
2023-02-05T09:32:11.648Z,1016.75
2023-02-05T09:33:11.658Z,1016.72
2023-02-05T09:34:11.603Z,1016.71
2023-02-05T09:35:11.600Z,1016.65
2023-02-05T09:36:11.575Z,1016.71
2023-02-05T09:37:11.572Z,1016.65
2023-02-05T09:38:11.575Z,1016.64
2023-02-05T09:39:18.444Z,1016.58
2023-02-05T09:40:20.536Z,1016.61
2023-02-05T09:41:12.530Z,1016.56
2023-02-05T09:42:11.551Z,1016.61
2023-02-05T09:43:11.509Z,1016.61
2023-02-05T09:44:11.507Z,1016.58
2023-02-05T09:45:11.518Z,1016.59
2023-02-05T09:46:11.519Z,1016.57
2023-02-05T09:47:11.508Z,1016.49
2023-02-05T09:48:11.448Z,1016.53
2023-02-05T09:49:11.457Z,1016.48
2023-02-05T09:50:11.429Z,1016.47
2023-02-05T09:51:11.445Z,1016.48
2023-02-05T09:52:11.405Z,1016.55
2023-02-05T09:53:11.495Z,1016.52
2023-02-05T09:54:11.381Z,1016.54
2023-02-05T09:55:11.375Z,1016.47
2023-02-05T09:56:11.364Z,1016.42
2023-02-05T09:57:11.373Z,1016.50
2023-02-05T09:58:11.343Z,1016.48
2023-02-05T09:59:11.333Z,1016.52
2023-02-05T10:00:11.314Z,1016.50
2023-02-05T10:01:11.345Z,1016.49
2023-02-05T10:02:11.311Z,1016.46
2023-02-05T10:03:11.291Z,1016.47
2023-02-05T10:04:11.424Z,1016.46
2023-02-05T10:05:11.260Z,1016.39
2023-02-05T10:06:11.240Z,1016.45
2023-02-05T10:07:11.261Z,1016.40
2023-02-05T10:08:11.254Z,1016.46
2023-02-05T10:09:11.220Z,1016.43
2023-02-05T10:10:11.200Z,1016.40
2023-02-05T10:11:11.191Z,1016.44
2023-02-05T10:12:11.178Z,1016.40
2023-02-05T10:13:11.169Z,1016.43
2023-02-05T10:14:11.181Z,1016.38
2023-02-05T10:15:11.150Z,1016.39
2023-02-05T10:16:11.185Z,1016.40
2023-02-05T10:17:11.127Z,1016.36
2023-02-05T10:18:11.116Z,1016.41
2023-02-05T10:19:11.117Z,1016.37
2023-02-05T10:20:18.156Z,1016.37
2023-02-05T10:21:11.088Z,1016.40
2023-02-05T10:22:13.695Z,1016.32
2023-02-05T10:23:11.065Z,1016.36
2023-02-05T10:24:11.047Z,1016.36
2023-02-05T10:25:11.046Z,1016.37
2023-02-05T10:26:11.048Z,1016.26
2023-02-05T10:27:11.036Z,1016.33
2023-02-05T10:28:11.042Z,1016.27
2023-02-05T10:29:11.002Z,1016.29
2023-02-05T10:30:10.988Z,1016.32
2023-02-05T10:31:11.043Z,1016.25
2023-02-05T10:32:10.979Z,1016.28
2023-02-05T10:33:10.952Z,1016.24
2023-02-05T10:34:10.949Z,1016.23
2023-02-05T10:35:10.928Z,1016.21
2023-02-05T10:36:10.920Z,1016.20
2023-02-05T10:37:10.912Z,1016.24
2023-02-05T10:38:10.918Z,1016.21
2023-02-05T10:39:10.889Z,1016.12
2023-02-05T10:40:10.868Z,1016.10
2023-02-05T10:41:10.868Z,1016.12
2023-02-05T10:42:10.850Z,1016.08
2023-02-05T10:43:10.847Z,1016.14
2023-02-05T10:44:10.856Z,1016.12
2023-02-05T10:45:10.816Z,1016.12
2023-02-05T10:46:10.877Z,1016.09
2023-02-05T10:47:10.797Z,1016.10
2023-02-05T10:48:10.793Z,1016.04
2023-02-05T10:49:10.797Z,1016.01
2023-02-05T10:50:10.756Z,1016.01
2023-02-05T10:51:10.746Z,1016.02
2023-02-05T10:52:10.738Z,1016.05
2023-02-05T10:53:10.726Z,1015.98
2023-02-05T10:54:10.717Z,1015.95
2023-02-05T10:55:10.726Z,1015.96
2023-02-05T10:56:10.697Z,1016.01
2023-02-05T10:57:10.686Z,1015.98
2023-02-05T10:58:10.670Z,1016.02
2023-02-05T10:59:10.656Z,1015.98
2023-02-05T11:00:10.760Z,1015.96
2023-02-05T11:01:10.664Z,1015.95
2023-02-05T11:02:10.626Z,1015.94
2023-02-05T11:03:10.615Z,1015.90
2023-02-05T11:04:10.606Z,1015.88
2023-02-05T11:05:10.595Z,1015.90
2023-02-05T11:06:10.584Z,1015.90
2023-02-05T11:07:10.597Z,1015.92
2023-02-05T11:08:10.566Z,1015.91
2023-02-05T11:09:10.557Z,1015.87
2023-02-05T11:10:10.544Z,1015.91
2023-02-05T11:11:10.526Z,1015.90
2023-02-05T11:12:10.515Z,1015.90
2023-02-05T11:13:10.525Z,1015.88
2023-02-05T11:14:10.496Z,1015.86
2023-02-05T11:15:10.485Z,1015.92
2023-02-05T11:16:10.490Z,1015.84
2023-02-05T11:17:10.465Z,1015.88
2023-02-05T11:18:10.443Z,1015.88
2023-02-05T11:19:10.494Z,1015.86
2023-02-05T11:20:10.422Z,1015.86
2023-02-05T11:21:10.413Z,1015.80
2023-02-05T11:22:10.405Z,1015.86
2023-02-05T11:23:10.406Z,1015.80
2023-02-05T11:24:10.392Z,1015.84
2023-02-05T11:25:10.424Z,1015.80
2023-02-05T11:26:10.362Z,1015.74
2023-02-05T11:27:10.351Z,1015.76
2023-02-05T11:28:10.373Z,1015.75
2023-02-05T11:29:10.334Z,1015.73
2023-02-05T11:30:10.312Z,1015.72
2023-02-05T11:31:10.388Z,1015.67
2023-02-05T11:32:12.603Z,1015.73
2023-02-05T11:33:10.281Z,1015.72
2023-02-05T11:34:10.275Z,1015.73
2023-02-05T11:35:10.279Z,1015.76
2023-02-05T11:36:10.254Z,1015.79
2023-02-05T11:37:10.261Z,1015.77
2023-02-05T11:38:10.223Z,1015.73
2023-02-05T11:39:10.212Z,1015.78
2023-02-05T11:40:10.216Z,1015.76
2023-02-05T11:41:10.205Z,1015.74
2023-02-05T11:42:10.202Z,1015.74
2023-02-05T11:43:10.194Z,1015.79
2023-02-05T11:44:10.162Z,1015.76
2023-02-05T11:45:10.151Z,1015.72
2023-02-05T11:46:10.209Z,1015.73
2023-02-05T11:47:10.130Z,1015.72
2023-02-05T11:48:10.132Z,1015.74
2023-02-05T11:49:10.110Z,1015.68
2023-02-05T11:50:10.104Z,1015.68
2023-02-05T11:51:10.090Z,1015.76
2023-02-05T11:52:10.112Z,1015.75
2023-02-05T11:53:10.071Z,1015.76
2023-02-05T11:54:10.072Z,1015.77
2023-02-05T11:55:10.042Z,1015.70
2023-02-05T11:56:10.046Z,1015.72
2023-02-05T11:57:10.024Z,1015.76
2023-02-05T11:58:10.015Z,1015.77
2023-02-05T11:59:10.003Z,1015.81
2023-02-05T12:00:10.016Z,1015.78
2023-02-05T12:01:09.983Z,1015.73
2023-02-05T12:02:09.999Z,1015.65
2023-02-05T12:03:09.990Z,1015.71
2023-02-05T12:04:09.942Z,1015.67
2023-02-05T12:05:09.943Z,1015.67